createdAt,value
2018-12-06T00:02:01.688Z,18.67
2018-12-06T00:04:29.748Z,18.20
2018-12-06T00:06:57.819Z,16.93
2018-12-06T00:09:25.872Z,16.87
2018-12-06T00:11:53.980Z,16.93
2018-12-06T00:14:22.022Z,20.37
2018-12-06T00:16:56.873Z,18.70
2018-12-06T00:19:24.946Z,18.83
2018-12-06T00:21:53.138Z,18.73
2018-12-06T00:24:21.274Z,17.57
2018-12-06T00:26:49.358Z,19.03
2018-12-06T00:29:17.441Z,18.53
2018-12-06T00:31:45.529Z,17.37
2018-12-06T00:34:13.569Z,17.93
2018-12-06T00:36:41.644Z,17.00
2018-12-06T00:39:09.677Z,17.00
2018-12-06T00:41:37.815Z,17.43
2018-12-06T00:44:05.929Z,16.83
2018-12-06T00:46:34.037Z,15.97
2018-12-06T00:49:02.191Z,18.40
2018-12-06T00:51:30.288Z,16.23
2018-12-06T00:53:58.873Z,19.10
2018-12-06T00:56:27.028Z,17.37
2018-12-06T00:58:55.268Z,16.20
2018-12-06T01:01:23.371Z,17.67
2018-12-06T01:03:51.447Z,16.90
2018-12-06T01:06:19.530Z,17.47
2018-12-06T01:08:47.667Z,16.40
2018-12-06T01:11:15.751Z,17.10
2018-12-06T01:13:43.845Z,15.63
2018-12-06T01:16:11.907Z,17.33
2018-12-06T01:18:39.985Z,16.87
2018-12-06T01:21:08.225Z,15.87
2018-12-06T01:23:36.277Z,16.57
2018-12-06T01:26:04.389Z,16.73
2018-12-06T01:28:32.474Z,17.43
2018-12-06T01:31:00.641Z,17.67
2018-12-06T01:33:28.709Z,17.33
2018-12-06T01:35:56.760Z,15.07
2018-12-06T01:38:24.852Z,15.20
2018-12-06T01:40:53.394Z,15.97
2018-12-06T01:43:21.442Z,16.40
2018-12-06T01:45:50.026Z,15.93
2018-12-06T01:48:18.376Z,17.50
2018-12-06T01:50:46.524Z,19.30
2018-12-06T01:53:14.608Z,21.53
2018-12-06T01:55:42.653Z,21.83
2018-12-06T01:58:10.730Z,20.57
2018-12-06T02:00:38.789Z,20.03
2018-12-06T02:03:06.868Z,23.90
2018-12-06T02:05:34.958Z,23.47
2018-12-06T02:08:03.006Z,22.47
2018-12-06T02:10:31.103Z,24.63
2018-12-06T02:12:59.244Z,24.63
2018-12-06T02:15:27.321Z,22.17
2018-12-06T02:17:55.382Z,23.77
2018-12-06T02:20:23.473Z,22.43
2018-12-06T02:22:51.614Z,21.73
2018-12-06T02:25:19.722Z,21.53
2018-12-06T02:27:48.340Z,19.17
2018-12-06T02:30:16.443Z,18.00
2018-12-06T02:32:44.546Z,17.70
2018-12-06T02:35:12.561Z,18.67
2018-12-06T02:37:40.631Z,17.80
2018-12-06T02:40:08.682Z,19.20
2018-12-06T02:42:36.763Z,16.77
2018-12-06T02:45:04.849Z,17.20
2018-12-06T02:47:32.910Z,16.53
2018-12-06T02:50:00.957Z,17.97
2018-12-06T02:52:29.026Z,15.67
2018-12-06T02:54:57.076Z,15.13
2018-12-06T02:57:25.113Z,14.63
2018-12-06T02:59:53.186Z,15.03
2018-12-06T03:02:21.225Z,15.30
2018-12-06T03:04:49.302Z,15.70
2018-12-06T03:07:17.375Z,15.67
2018-12-06T03:09:46.396Z,14.53
2018-12-06T03:12:14.540Z,15.77
2018-12-06T03:14:42.608Z,14.17
2018-12-06T03:17:10.644Z,13.70
2018-12-06T03:19:38.704Z,13.13
2018-12-06T03:22:06.767Z,14.10
2018-12-06T03:24:34.798Z,14.67
2018-12-06T03:27:02.869Z,15.73
2018-12-06T03:29:30.944Z,15.50
2018-12-06T03:31:58.973Z,17.60
2018-12-06T03:34:27.133Z,19.07
2018-12-06T03:36:55.162Z,18.67
2018-12-06T03:39:23.229Z,18.97
2018-12-06T03:41:51.321Z,18.20
2018-12-06T03:44:19.346Z,20.80
2018-12-06T03:46:47.433Z,20.37
2018-12-06T03:49:15.575Z,18.90
2018-12-06T03:51:43.667Z,19.10
2018-12-06T03:54:11.758Z,18.47
2018-12-06T03:56:39.926Z,18.07
2018-12-06T03:59:08.114Z,18.73
2018-12-06T04:01:36.201Z,19.50
2018-12-06T04:04:04.273Z,18.00
2018-12-06T04:06:32.306Z,18.10
2018-12-06T04:09:00.399Z,17.37
2018-12-06T04:11:28.521Z,19.00
2018-12-06T04:13:56.661Z,18.47
2018-12-06T04:16:24.742Z,16.77
2018-12-06T04:18:52.792Z,17.83
2018-12-06T04:21:20.861Z,18.43
2018-12-06T04:23:52.021Z,19.43
2018-12-06T04:26:20.079Z,16.77
2018-12-06T04:28:48.156Z,17.17
2018-12-06T04:31:16.197Z,15.17
2018-12-06T04:33:44.289Z,13.77
2018-12-06T04:36:12.321Z,13.37
2018-12-06T04:38:40.463Z,11.97
2018-12-06T04:41:08.671Z,11.53
2018-12-06T04:43:36.744Z,11.73
2018-12-06T04:46:04.836Z,10.00
2018-12-06T04:48:32.856Z,8.30
2018-12-06T04:51:00.920Z,8.90
2018-12-06T04:53:28.954Z,8.10
2018-12-06T04:55:57.030Z,7.47
2018-12-06T04:58:25.069Z,7.40
2018-12-06T05:00:53.133Z,7.90
2018-12-06T05:03:21.196Z,9.03
2018-12-06T05:05:49.282Z,8.13
2018-12-06T05:08:17.354Z,9.07
2018-12-06T05:10:45.518Z,6.80
2018-12-06T05:13:14.209Z,6.10
2018-12-06T05:15:42.387Z,6.00
2018-12-06T05:18:11.063Z,6.57
2018-12-06T05:20:39.233Z,6.80
2018-12-06T05:23:07.272Z,5.30
2018-12-06T05:25:35.337Z,6.70
2018-12-06T05:28:03.894Z,6.60
2018-12-06T05:30:32.032Z,8.10
2018-12-06T05:33:00.116Z,7.63
2018-12-06T05:35:28.185Z,7.40
2018-12-06T05:37:56.252Z,8.90
2018-12-06T05:40:24.388Z,7.40
2018-12-06T05:42:52.497Z,8.27
2018-12-06T05:45:20.644Z,8.37
2018-12-06T05:47:48.711Z,7.90
2018-12-06T05:50:16.788Z,8.23
2018-12-06T05:52:44.834Z,7.13
2018-12-06T05:55:13.060Z,6.97
2018-12-06T05:57:41.170Z,6.00
2018-12-06T06:00:09.279Z,5.93
2018-12-06T06:02:37.312Z,5.87
2018-12-06T06:05:05.897Z,5.80
2018-12-06T06:07:33.969Z,6.37
2018-12-06T06:10:02.471Z,7.20
2018-12-06T06:12:30.526Z,7.27
2018-12-06T06:14:58.629Z,7.60
2018-12-06T06:17:27.488Z,7.00
2018-12-06T06:19:55.709Z,7.43
2018-12-06T06:22:23.752Z,8.87
2018-12-06T06:24:51.821Z,7.43
2018-12-06T06:27:19.875Z,8.17
2018-12-06T06:29:48.054Z,8.40
2018-12-06T06:32:16.163Z,8.50
2018-12-06T06:34:44.221Z,8.43
2018-12-06T06:37:12.272Z,6.87
2018-12-06T06:39:40.319Z,7.40
2018-12-06T06:42:08.396Z,5.90
2018-12-06T06:44:36.619Z,7.30
2018-12-06T06:47:04.660Z,6.57
2018-12-06T06:49:32.691Z,6.83
2018-12-06T06:52:00.913Z,6.00
2018-12-06T06:54:29.048Z,6.70
2018-12-06T06:56:57.275Z,7.47
2018-12-06T06:59:26.207Z,6.27
2018-12-06T07:01:54.644Z,7.47
2018-12-06T07:04:22.689Z,7.43
2018-12-06T07:06:51.296Z,7.80
2018-12-06T07:09:19.908Z,9.17
2018-12-06T07:11:48.007Z,8.20
2018-12-06T07:14:16.699Z,7.27
2018-12-06T07:16:44.896Z,7.07
2018-12-06T07:19:12.946Z,7.30
2018-12-06T07:21:41.125Z,8.20
2018-12-06T07:24:09.161Z,11.13
2018-12-06T07:26:37.984Z,10.10
2018-12-06T07:29:06.154Z,9.27
2018-12-06T07:31:35.001Z,9.43
2018-12-06T07:34:03.065Z,9.13
2018-12-06T07:36:31.453Z,8.10
2018-12-06T07:38:59.491Z,8.47
2018-12-06T07:41:27.637Z,7.70
2018-12-06T07:43:55.675Z,8.07
2018-12-06T07:46:23.736Z,8.63
2018-12-06T07:48:51.841Z,7.87
2018-12-06T07:51:20.938Z,6.87
2018-12-06T07:53:49.005Z,7.23
2018-12-06T07:56:17.705Z,5.97
2018-12-06T07:58:45.762Z,5.30
2018-12-06T08:01:14.122Z,5.77
2018-12-06T08:03:42.322Z,4.90
2018-12-06T08:06:10.388Z,4.90
2018-12-06T08:08:38.626Z,4.87
2018-12-06T08:11:06.709Z,5.10
2018-12-06T08:13:36.979Z,4.80
2018-12-06T08:16:05.009Z,5.03
2018-12-06T08:18:33.082Z,5.40
2018-12-06T08:21:01.690Z,4.67
2018-12-06T08:23:29.868Z,4.70
2018-12-06T08:25:57.946Z,4.97
2018-12-06T08:28:25.993Z,4.17
2018-12-06T08:30:54.034Z,4.13
2018-12-06T08:33:22.101Z,4.67
2018-12-06T08:35:50.155Z,4.20
2018-12-06T08:38:18.249Z,4.20
2018-12-06T08:40:46.292Z,4.40
2018-12-06T08:43:14.384Z,3.73
2018-12-06T08:45:42.443Z,3.97
2018-12-06T08:48:10.513Z,3.90
2018-12-06T08:50:38.601Z,3.80
2018-12-06T08:53:08.497Z,3.57
2018-12-06T08:55:40.156Z,3.40
2018-12-06T08:58:08.369Z,4.20
2018-12-06T09:00:36.657Z,3.47
2018-12-06T09:03:08.644Z,3.90
2018-12-06T09:05:36.723Z,3.40
2018-12-06T09:08:05.130Z,3.73
2018-12-06T09:10:33.230Z,3.80
2018-12-06T09:13:01.310Z,3.27
2018-12-06T09:15:29.332Z,3.50
2018-12-06T09:17:57.416Z,3.73
2018-12-06T09:20:25.468Z,3.20
2018-12-06T09:22:54.091Z,2.83
2018-12-06T09:25:22.153Z,3.40
2018-12-06T09:27:50.220Z,3.40
2018-12-06T09:30:18.260Z,3.00
2018-12-06T09:32:46.847Z,2.83
2018-12-06T09:35:14.905Z,3.50
2018-12-06T09:37:43.442Z,3.73
2018-12-06T09:40:11.470Z,3.63
2018-12-06T09:42:45.037Z,3.90
2018-12-06T09:45:14.372Z,3.37
2018-12-06T09:47:46.736Z,3.47
2018-12-06T09:50:19.313Z,3.83
2018-12-06T09:52:47.398Z,3.73
2018-12-06T09:55:15.450Z,3.47
2018-12-06T09:57:43.531Z,3.47
2018-12-06T10:00:12.812Z,3.70
2018-12-06T10:02:40.898Z,3.93
2018-12-06T10:05:09.973Z,3.60
2018-12-06T10:07:38.041Z,3.70
2018-12-06T10:10:06.131Z,3.30
2018-12-06T10:12:34.185Z,3.97
2018-12-06T10:15:02.314Z,4.00
2018-12-06T10:17:30.705Z,4.07
2018-12-06T10:20:00.121Z,4.17
2018-12-06T10:22:28.269Z,3.97
2018-12-06T10:24:56.723Z,3.50
2018-12-06T10:27:24.770Z,3.70
2018-12-06T10:29:52.854Z,3.87
2018-12-06T10:32:20.895Z,3.90
2018-12-06T10:34:53.367Z,4.10
2018-12-06T10:37:19.109Z,3.30
2018-12-06T10:39:47.273Z,4.13
2018-12-06T10:42:15.364Z,3.30
2018-12-06T10:44:47.249Z,3.53
2018-12-06T10:47:15.334Z,4.03
2018-12-06T10:49:43.869Z,4.23
2018-12-06T10:52:11.927Z,4.23
2018-12-06T10:54:40.013Z,4.03
2018-12-06T10:57:08.068Z,4.07
2018-12-06T10:59:36.177Z,3.97
2018-12-06T11:02:09.448Z,5.07
2018-12-06T11:04:37.702Z,4.97
2018-12-06T11:07:06.450Z,4.77
2018-12-06T11:09:34.552Z,4.97
2018-12-06T11:12:02.698Z,4.20
2018-12-06T11:14:30.787Z,4.30
2018-12-06T11:16:58.868Z,5.10
2018-12-06T11:19:27.388Z,4.47
2018-12-06T11:21:55.519Z,4.23
2018-12-06T11:24:23.568Z,4.93
2018-12-06T11:26:51.641Z,4.87
2018-12-06T11:29:19.737Z,5.13
2018-12-06T11:31:47.808Z,4.80
2018-12-06T11:34:17.991Z,4.40
2018-12-06T11:36:46.092Z,5.07
2018-12-06T11:39:14.169Z,4.50
2018-12-06T11:41:43.272Z,5.53
2018-12-06T11:44:11.639Z,5.40
2018-12-06T11:46:39.715Z,4.87
2018-12-06T11:49:07.834Z,5.00
2018-12-06T11:51:35.893Z,5.13
2018-12-06T11:54:04.790Z,5.20
2018-12-06T11:56:32.853Z,5.13
2018-12-06T11:59:00.896Z,5.03
2018-12-06T12:01:28.972Z,4.60
2018-12-06T12:03:57.065Z,4.53
2018-12-06T12:06:25.240Z,4.53
2018-12-06T12:08:53.468Z,4.00
2018-12-06T12:11:21.530Z,3.90
2018-12-06T12:13:49.606Z,4.40
2018-12-06T12:16:17.726Z,3.80
2018-12-06T12:18:45.768Z,4.07
2018-12-06T12:21:13.839Z,3.93
2018-12-06T12:23:43.094Z,3.77
2018-12-06T12:26:11.135Z,3.80
2018-12-06T12:28:39.925Z,3.60
2018-12-06T12:31:08.091Z,3.97
2018-12-06T12:33:36.156Z,4.63
2018-12-06T12:36:04.226Z,4.33
2018-12-06T12:38:32.407Z,3.27
2018-12-06T12:41:01.257Z,3.17
2018-12-06T12:43:29.640Z,3.00
2018-12-06T12:45:57.688Z,2.47
2018-12-06T12:48:26.065Z,2.70
2018-12-06T12:50:54.143Z,2.50
2018-12-06T12:53:23.032Z,2.33
2018-12-06T12:55:51.218Z,2.40
2018-12-06T12:58:19.296Z,2.20
2018-12-06T13:00:48.203Z,1.77
2018-12-06T13:03:16.274Z,1.73
2018-12-06T13:05:44.358Z,1.52
2018-12-06T13:08:12.396Z,1.80
2018-12-06T13:10:40.468Z,1.80
2018-12-06T13:13:13.033Z,1.77
2018-12-06T13:15:41.133Z,1.80
2018-12-06T13:18:09.518Z,1.83
2018-12-06T13:20:37.691Z,1.97
2018-12-06T13:23:05.813Z,1.60
2018-12-06T13:25:33.897Z,1.93
2018-12-06T13:28:01.965Z,2.33
2018-12-06T13:30:30.014Z,2.00
2018-12-06T13:32:58.099Z,1.83
2018-12-06T13:35:26.210Z,2.10
2018-12-06T13:37:54.392Z,1.90
2018-12-06T13:40:22.445Z,2.47
2018-12-06T13:42:50.808Z,2.30
2018-12-06T13:45:19.003Z,1.90
2018-12-06T13:47:47.140Z,1.90
2018-12-06T13:50:15.199Z,2.23
2018-12-06T13:52:43.244Z,1.97
2018-12-06T13:55:11.324Z,1.83
2018-12-06T13:57:39.366Z,1.50
2018-12-06T14:00:07.434Z,1.90
2018-12-06T14:02:35.457Z,1.90
2018-12-06T14:05:03.550Z,2.10
2018-12-06T14:07:32.046Z,1.60
2018-12-06T14:10:00.165Z,2.03
2018-12-06T14:12:32.061Z,1.87
2018-12-06T14:15:00.107Z,1.50
2018-12-06T14:17:28.176Z,1.83
2018-12-06T14:19:56.225Z,1.80
2018-12-06T14:22:24.286Z,1.80
2018-12-06T14:24:52.338Z,2.13
2018-12-06T14:27:21.314Z,1.90
2018-12-06T14:29:49.359Z,1.80
2018-12-06T14:32:17.446Z,2.00
2018-12-06T14:34:45.988Z,2.00
2018-12-06T14:37:14.047Z,2.20
2018-12-06T14:39:42.146Z,1.70
2018-12-06T14:42:10.303Z,1.97
2018-12-06T14:44:38.365Z,1.80
2018-12-06T14:47:06.662Z,2.10
2018-12-06T14:49:34.871Z,2.67
2018-12-06T14:52:02.936Z,2.07
2018-12-06T14:54:32.991Z,1.93
2018-12-06T14:57:06.326Z,1.90
2018-12-06T14:59:34.930Z,2.13
2018-12-06T15:02:04.020Z,2.60
2018-12-06T15:04:33.816Z,2.00
2018-12-06T15:07:02.561Z,2.30
2018-12-06T15:09:30.596Z,2.20
2018-12-06T15:11:58.663Z,2.77
2018-12-06T15:14:26.943Z,2.30
2018-12-06T15:16:55.006Z,2.30
2018-12-06T15:19:23.040Z,2.70
2018-12-06T15:21:51.984Z,2.17
2018-12-06T15:24:21.068Z,2.30
2018-12-06T15:26:49.109Z,2.07
2018-12-06T15:29:17.182Z,2.53
2018-12-06T15:31:45.232Z,2.87
2018-12-06T15:34:13.302Z,2.80
2018-12-06T15:36:41.800Z,2.63
2018-12-06T15:39:09.979Z,2.80
2018-12-06T15:41:38.048Z,2.77
2018-12-06T15:44:06.082Z,3.27
2018-12-06T15:46:34.402Z,2.67
2018-12-06T15:49:02.484Z,2.90
2018-12-06T15:51:30.548Z,2.80
2018-12-06T15:53:58.621Z,2.20
2018-12-06T15:56:26.691Z,2.40
2018-12-06T15:58:54.733Z,2.50
2018-12-06T16:01:22.790Z,2.37
2018-12-06T16:03:51.965Z,3.10
2018-12-06T16:06:20.039Z,3.77
2018-12-06T16:08:48.076Z,2.50
2018-12-06T16:11:16.132Z,3.10
2018-12-06T16:13:44.185Z,2.63
2018-12-06T16:16:12.826Z,3.23
2018-12-06T16:18:40.897Z,2.60
2018-12-06T16:21:09.031Z,3.10
2018-12-06T16:23:37.088Z,3.47
2018-12-06T16:26:05.243Z,3.33
2018-12-06T16:28:33.327Z,2.80
2018-12-06T16:31:01.489Z,3.07
2018-12-06T16:33:29.615Z,2.60
2018-12-06T16:35:57.716Z,3.03
2018-12-06T16:38:25.787Z,3.00
2018-12-06T16:40:53.817Z,2.70
2018-12-06T16:43:21.949Z,2.67
2018-12-06T16:45:50.055Z,2.60
2018-12-06T16:48:18.101Z,3.37
2018-12-06T16:50:46.166Z,3.70
2018-12-06T16:53:14.371Z,3.20
2018-12-06T16:55:42.536Z,2.50
2018-12-06T16:58:10.610Z,2.60
2018-12-06T17:00:38.669Z,2.50
2018-12-06T17:03:11.224Z,2.30
2018-12-06T17:05:39.281Z,2.37
2018-12-06T17:08:07.369Z,2.40
2018-12-06T17:10:35.499Z,2.47
2018-12-06T17:13:03.604Z,2.90
2018-12-06T17:15:31.659Z,2.27
2018-12-06T17:17:59.705Z,2.47
2018-12-06T17:20:29.433Z,2.10
2018-12-06T17:22:57.502Z,2.80
2018-12-06T17:25:25.610Z,2.80
2018-12-06T17:27:53.670Z,2.60
2018-12-06T17:30:28.878Z,2.27
2018-12-06T17:32:56.942Z,2.43
2018-12-06T17:35:25.268Z,2.80
2018-12-06T17:37:53.403Z,2.23
2018-12-06T17:40:21.496Z,2.60
2018-12-06T17:42:53.128Z,2.63
2018-12-06T17:45:21.219Z,2.30
2018-12-06T17:47:49.276Z,2.30
2018-12-06T17:50:17.788Z,2.47
2018-12-06T17:52:45.895Z,2.20
2018-12-06T17:55:13.945Z,2.27
2018-12-06T17:57:42.036Z,2.60
2018-12-06T18:00:10.757Z,2.77
2018-12-06T18:02:38.832Z,2.50
2018-12-06T18:05:06.911Z,2.47
2018-12-06T18:07:34.950Z,2.00
2018-12-06T18:10:03.069Z,2.33
2018-12-06T18:12:31.202Z,2.00
2018-12-06T18:14:59.313Z,2.63
2018-12-06T18:17:27.344Z,2.20
2018-12-06T18:19:55.631Z,2.37
2018-12-06T18:22:23.766Z,2.87
2018-12-06T18:24:51.878Z,2.37
2018-12-06T18:27:21.200Z,2.57
2018-12-06T18:29:49.277Z,2.80
2018-12-06T18:32:17.313Z,2.73
2018-12-06T18:34:46.134Z,2.80
2018-12-06T18:37:14.237Z,3.33
2018-12-06T18:39:42.295Z,5.03
2018-12-06T18:42:10.373Z,6.73
2018-12-06T18:44:39.294Z,3.17
2018-12-06T18:47:07.469Z,3.70
2018-12-06T18:49:35.702Z,13.20
2018-12-06T18:52:03.799Z,7.60
2018-12-06T18:54:31.868Z,5.50
2018-12-06T18:57:00.618Z,3.43
2018-12-06T18:59:28.724Z,2.47
2018-12-06T19:01:56.826Z,2.67
2018-12-06T19:04:26.107Z,2.43
2018-12-06T19:06:54.315Z,4.60
2018-12-06T19:09:22.423Z,3.00
2018-12-06T19:11:50.545Z,2.63
2018-12-06T19:14:21.756Z,3.27
2018-12-06T19:16:48.643Z,3.10
2018-12-06T19:19:16.695Z,4.07
2018-12-06T19:21:44.790Z,6.07
2018-12-06T19:24:12.929Z,5.20
2018-12-06T19:26:41.269Z,16.37
2018-12-06T19:29:09.324Z,14.80
2018-12-06T19:31:37.374Z,9.70
2018-12-06T19:34:05.461Z,14.17
2018-12-06T19:36:33.538Z,23.60
2018-12-06T19:39:01.617Z,59.07
2018-12-06T19:41:29.688Z,72.33
2018-12-06T19:43:57.765Z,4.67
2018-12-06T19:46:25.838Z,2.70
2018-12-06T19:48:54.029Z,2.90
2018-12-06T19:51:22.370Z,2.67
2018-12-06T19:53:50.447Z,2.83
2018-12-06T19:56:18.495Z,3.13
2018-12-06T19:58:50.135Z,2.70
2018-12-06T20:01:18.195Z,2.73
2018-12-06T20:03:46.266Z,2.70
2018-12-06T20:06:14.331Z,2.77
2018-12-06T20:08:42.394Z,2.77
2018-12-06T20:11:10.594Z,2.40
2018-12-06T20:13:38.684Z,2.87
2018-12-06T20:16:06.735Z,2.57
2018-12-06T20:18:34.809Z,2.50
2018-12-06T20:21:02.872Z,2.37
2018-12-06T20:23:30.976Z,2.63
2018-12-06T20:26:00.780Z,2.97
2018-12-06T20:28:28.868Z,2.57
2018-12-06T20:30:56.948Z,2.40
2018-12-06T20:33:56.563Z,2.20
2018-12-06T20:36:24.658Z,2.53
2018-12-06T20:38:52.723Z,2.17
2018-12-06T20:41:20.872Z,2.30
2018-12-06T20:43:48.973Z,2.67
2018-12-06T20:46:17.086Z,2.10
2018-12-06T20:48:45.706Z,2.27
2018-12-06T20:51:13.808Z,1.93
2018-12-06T20:53:41.926Z,2.50
2018-12-06T20:56:10.037Z,2.20
2018-12-06T20:58:38.176Z,2.20
2018-12-06T21:01:06.276Z,1.90
2018-12-06T21:03:34.841Z,1.70
2018-12-06T21:06:02.930Z,2.10
2018-12-06T21:08:30.997Z,2.00
2018-12-06T21:10:59.144Z,1.97
2018-12-06T21:13:27.225Z,1.60
2018-12-06T21:15:55.306Z,1.60
2018-12-06T21:18:23.517Z,1.70
2018-12-06T21:20:51.653Z,1.73
2018-12-06T21:23:19.720Z,1.80
2018-12-06T21:25:47.826Z,1.57
2018-12-06T21:28:15.889Z,1.50
2018-12-06T21:30:44.003Z,1.30
2018-12-06T21:33:12.060Z,2.10
2018-12-06T21:35:40.128Z,3.03
2018-12-06T21:38:08.222Z,3.50
2018-12-06T21:40:36.294Z,2.50
2018-12-06T21:43:04.353Z,5.43
2018-12-06T21:45:33.568Z,4.93
2018-12-06T21:48:01.792Z,2.10
2018-12-06T21:50:29.830Z,7.77
2018-12-06T21:52:57.906Z,4.43
2018-12-06T21:55:25.944Z,5.43
2018-12-06T21:57:54.039Z,20.33
2018-12-06T22:00:22.142Z,51.80
2018-12-06T22:02:50.210Z,8.27
2018-12-06T22:05:18.263Z,17.40
2018-12-06T22:07:46.327Z,2.43
2018-12-06T22:10:14.410Z,2.00
2018-12-06T22:12:44.245Z,1.90
2018-12-06T22:15:12.553Z,1.30
2018-12-06T22:17:40.597Z,1.40
2018-12-06T22:20:08.685Z,1.70
2018-12-06T22:22:36.752Z,1.17
2018-12-06T22:25:04.851Z,1.40
2018-12-06T22:27:32.914Z,1.20
2018-12-06T22:30:00.958Z,1.40
2018-12-06T22:32:29.088Z,1.60
2018-12-06T22:34:57.174Z,1.30
2018-12-06T22:37:25.246Z,1.50
2018-12-06T22:39:53.442Z,1.20
2018-12-06T22:42:21.571Z,1.30
2018-12-06T22:44:49.658Z,1.40
2018-12-06T22:47:19.736Z,1.23
2018-12-06T22:49:47.828Z,1.10
2018-12-06T22:52:16.028Z,1.20
2018-12-06T22:54:44.230Z,1.23
2018-12-06T22:57:12.368Z,1.17
2018-12-06T22:59:40.406Z,1.13
2018-12-06T23:02:09.043Z,1.43
2018-12-06T23:04:37.584Z,1.20
2018-12-06T23:07:05.889Z,1.10
2018-12-06T23:09:34.130Z,1.20
2018-12-06T23:12:02.182Z,1.03
2018-12-06T23:14:30.372Z,1.03
2018-12-06T23:16:59.063Z,1.30
2018-12-06T23:19:27.152Z,1.20
2018-12-06T23:21:55.835Z,1.20
2018-12-06T23:24:23.897Z,1.20
2018-12-06T23:26:51.954Z,1.00
2018-12-06T23:29:19.997Z,1.30
2018-12-06T23:31:48.072Z,1.20
2018-12-06T23:34:16.105Z,1.20
2018-12-06T23:36:44.157Z,1.17
2018-12-06T23:39:12.204Z,1.20
2018-12-06T23:41:40.265Z,1.20
2018-12-06T23:44:08.315Z,1.00
2018-12-06T23:46:36.427Z,1.10
2018-12-06T23:49:04.468Z,1.30
2018-12-06T23:51:37.912Z,1.20
2018-12-06T23:54:05.955Z,1.20
2018-12-06T23:56:34.009Z,1.30
2018-12-06T23:59:02.077Z,1.10
